createdAt,value
2023-05-14T00:00:55.026Z,7.83
2023-05-14T00:01:55.074Z,7.86
2023-05-14T00:02:55.224Z,7.80
2023-05-14T00:03:55.107Z,7.79
2023-05-14T00:04:54.986Z,7.79
2023-05-14T00:05:54.991Z,7.80
2023-05-14T00:06:54.983Z,7.72
2023-05-14T00:07:54.978Z,7.71
2023-05-14T00:08:54.937Z,7.69
2023-05-14T00:09:54.934Z,7.69
2023-05-14T00:10:54.972Z,7.58
2023-05-14T00:11:54.931Z,7.58
2023-05-14T00:12:54.914Z,7.63
2023-05-14T00:13:54.894Z,7.67
2023-05-14T00:14:54.999Z,7.58
2023-05-14T00:15:54.973Z,7.58
2023-05-14T00:16:54.846Z,7.52
2023-05-14T00:17:55.091Z,7.52
2023-05-14T00:18:57.451Z,7.45
2023-05-14T00:19:54.820Z,7.43
2023-05-14T00:20:54.942Z,7.37
2023-05-14T00:21:54.816Z,7.45
2023-05-14T00:22:54.779Z,7.39
2023-05-14T00:23:54.772Z,7.42
2023-05-14T00:24:54.775Z,7.25
2023-05-14T00:25:54.756Z,7.35
2023-05-14T00:26:54.779Z,7.30
2023-05-14T00:27:54.732Z,7.27
2023-05-14T00:28:54.713Z,7.24
2023-05-14T00:29:54.728Z,7.27
2023-05-14T00:30:54.733Z,7.24
2023-05-14T00:31:54.711Z,7.15
2023-05-14T00:32:54.747Z,7.12
2023-05-14T00:33:54.665Z,7.15
2023-05-14T00:34:54.664Z,7.09
2023-05-14T00:35:54.640Z,7.12
2023-05-14T00:36:54.618Z,7.07
2023-05-14T00:37:54.622Z,7.05
2023-05-14T00:38:54.612Z,7.06
2023-05-14T00:39:54.600Z,6.95
2023-05-14T00:40:54.593Z,7.07
2023-05-14T00:41:54.573Z,6.97
2023-05-14T00:42:54.577Z,6.97
2023-05-14T00:43:54.544Z,6.98
2023-05-14T00:44:54.538Z,6.98
2023-05-14T00:45:54.529Z,6.94
2023-05-14T00:46:54.544Z,6.89
2023-05-14T00:47:54.564Z,6.85
2023-05-14T00:48:54.482Z,6.88
2023-05-14T00:49:54.469Z,6.80
2023-05-14T00:50:54.481Z,6.85
2023-05-14T00:51:54.455Z,6.84
2023-05-14T00:53:00.145Z,6.73
2023-05-14T00:53:54.441Z,6.66
2023-05-14T00:54:54.416Z,6.67
2023-05-14T00:55:54.428Z,6.67
2023-05-14T00:56:54.415Z,6.64
2023-05-14T00:57:54.408Z,6.70
2023-05-14T00:58:54.414Z,6.61
2023-05-14T00:59:54.378Z,6.67
2023-05-14T01:00:54.375Z,6.67
2023-05-14T01:01:54.376Z,6.67
2023-05-14T01:02:54.391Z,6.59
2023-05-14T01:03:54.371Z,6.61
2023-05-14T01:04:54.293Z,6.64
2023-05-14T01:05:54.285Z,6.54
2023-05-14T01:06:54.291Z,6.54
2023-05-14T01:07:54.265Z,6.48
2023-05-14T01:08:54.250Z,6.52
2023-05-14T01:09:54.263Z,6.41
2023-05-14T01:10:54.243Z,6.49
2023-05-14T01:11:54.251Z,6.51
2023-05-14T01:12:54.218Z,6.46
2023-05-14T01:13:54.195Z,6.36
2023-05-14T01:14:54.236Z,6.31
2023-05-14T01:15:54.181Z,6.40
2023-05-14T01:16:54.185Z,6.40
2023-05-14T01:17:54.219Z,6.37
2023-05-14T01:18:54.185Z,6.33
2023-05-14T01:19:54.158Z,6.28
2023-05-14T01:20:54.104Z,6.27
2023-05-14T01:21:54.113Z,6.18
2023-05-14T01:22:54.123Z,6.18
2023-05-14T01:23:54.078Z,6.19
2023-05-14T01:24:54.065Z,6.14
2023-05-14T01:25:54.075Z,6.14
2023-05-14T01:26:54.042Z,6.12
2023-05-14T01:27:54.043Z,6.12
2023-05-14T01:28:54.019Z,6.14
2023-05-14T01:29:54.014Z,6.14
2023-05-14T01:30:54.027Z,6.14
2023-05-14T01:31:54.015Z,6.08
2023-05-14T01:32:54.018Z,6.00
2023-05-14T01:33:53.959Z,6.06
2023-05-14T01:34:53.950Z,6.03
2023-05-14T01:35:53.955Z,6.09
2023-05-14T01:36:53.950Z,6.06
2023-05-14T01:37:53.917Z,6.01
2023-05-14T01:38:53.927Z,6.00
2023-05-14T01:39:53.896Z,5.99
2023-05-14T01:40:53.877Z,6.00
2023-05-14T01:41:53.897Z,5.85
2023-05-14T01:42:53.892Z,5.91
2023-05-14T01:43:53.879Z,5.86
2023-05-14T01:44:53.829Z,5.89
2023-05-14T01:45:53.869Z,5.90
2023-05-14T01:46:53.828Z,5.85
2023-05-14T01:47:53.892Z,5.81
2023-05-14T01:48:53.886Z,5.81
2023-05-14T01:49:53.778Z,5.94
2023-05-14T01:50:53.776Z,5.82
2023-05-14T01:51:53.850Z,5.91
2023-05-14T01:52:53.737Z,5.78
2023-05-14T01:53:53.728Z,5.83
2023-05-14T01:54:53.730Z,5.81
2023-05-14T01:55:55.052Z,5.86
2023-05-14T01:56:53.687Z,5.82
2023-05-14T01:57:53.694Z,5.81
2023-05-14T01:58:53.668Z,5.78
2023-05-14T01:59:53.658Z,5.72
2023-05-14T02:00:53.665Z,5.74
2023-05-14T02:01:53.812Z,5.67
2023-05-14T02:02:53.703Z,5.72
2023-05-14T02:03:53.682Z,5.63
2023-05-14T02:04:53.592Z,5.65
2023-05-14T02:05:53.607Z,5.67
2023-05-14T02:06:53.576Z,5.54
2023-05-14T02:07:53.571Z,5.46
2023-05-14T02:08:53.548Z,5.46
2023-05-14T02:09:53.570Z,5.49
2023-05-14T02:10:53.547Z,5.54
2023-05-14T02:11:53.527Z,5.53
2023-05-14T02:12:53.501Z,5.54
2023-05-14T02:13:53.502Z,5.39
2023-05-14T02:14:53.502Z,5.48
2023-05-14T02:15:53.504Z,5.51
2023-05-14T02:16:53.492Z,5.42
2023-05-14T02:17:53.492Z,5.42
2023-05-14T02:18:53.563Z,5.43
2023-05-14T02:19:53.459Z,5.42
2023-05-14T02:20:53.424Z,5.43
2023-05-14T02:21:53.444Z,5.49
2023-05-14T02:22:53.407Z,5.40
2023-05-14T02:23:53.391Z,5.38
2023-05-14T02:24:53.374Z,5.33
2023-05-14T02:25:53.366Z,5.40
2023-05-14T02:26:53.369Z,5.42
2023-05-14T02:27:53.340Z,5.33
2023-05-14T02:28:53.341Z,5.36
2023-05-14T02:29:53.342Z,5.35
2023-05-14T02:30:53.307Z,5.45
2023-05-14T02:31:53.395Z,5.35
2023-05-14T02:32:53.413Z,5.30
2023-05-14T02:33:53.307Z,5.38
2023-05-14T02:34:53.278Z,5.25
2023-05-14T02:35:53.262Z,5.30
2023-05-14T02:36:53.261Z,5.45
2023-05-14T02:37:53.225Z,5.40
2023-05-14T02:38:53.218Z,5.40
2023-05-14T02:39:53.200Z,5.33
2023-05-14T02:40:53.221Z,5.39
2023-05-14T02:41:53.221Z,5.35
2023-05-14T02:42:53.187Z,5.39
2023-05-14T02:43:53.159Z,5.35
2023-05-14T02:44:53.156Z,5.39
2023-05-14T02:45:53.139Z,5.42
2023-05-14T02:46:53.197Z,5.45
2023-05-14T02:47:53.132Z,5.45
2023-05-14T02:48:53.115Z,5.43
2023-05-14T02:49:53.113Z,5.49
2023-05-14T02:50:53.119Z,5.46
2023-05-14T02:51:53.095Z,5.48
2023-05-14T02:52:53.065Z,5.53
2023-05-14T02:53:53.056Z,5.53
2023-05-14T02:54:53.043Z,5.42
2023-05-14T02:55:53.033Z,5.40
2023-05-14T02:56:53.045Z,5.51
2023-05-14T02:57:53.020Z,5.48
2023-05-14T02:58:53.001Z,5.42
2023-05-14T02:59:52.981Z,5.45
2023-05-14T03:00:53.049Z,5.48
2023-05-14T03:01:53.013Z,5.45
2023-05-14T03:02:53.177Z,5.39
2023-05-14T03:03:52.935Z,5.46
2023-05-14T03:04:52.930Z,5.49
2023-05-14T03:05:52.922Z,5.51
2023-05-14T03:06:52.951Z,5.36
2023-05-14T03:07:52.900Z,5.46
2023-05-14T03:08:52.890Z,5.35
2023-05-14T03:09:52.870Z,5.38
2023-05-14T03:10:52.912Z,5.38
2023-05-14T03:11:52.862Z,5.28
2023-05-14T03:12:52.845Z,5.30
2023-05-14T03:13:52.822Z,5.25
2023-05-14T03:14:52.831Z,5.33
2023-05-14T03:15:52.819Z,5.27
2023-05-14T03:16:52.879Z,5.30
2023-05-14T03:17:52.830Z,5.33
2023-05-14T03:18:52.817Z,5.33
2023-05-14T03:19:52.761Z,5.17
2023-05-14T03:20:52.826Z,5.18
2023-05-14T03:21:52.732Z,5.20
2023-05-14T03:22:52.752Z,5.22
2023-05-14T03:23:52.712Z,5.30
2023-05-14T03:24:52.718Z,5.18
2023-05-14T03:25:52.704Z,5.17
2023-05-14T03:26:52.704Z,5.21
2023-05-14T03:27:52.690Z,5.22
2023-05-14T03:28:52.675Z,5.15
2023-05-14T03:29:52.651Z,5.18
2023-05-14T03:30:52.736Z,5.28
2023-05-14T03:31:52.631Z,5.28
2023-05-14T03:32:52.767Z,5.28
2023-05-14T03:33:52.595Z,5.25
2023-05-14T03:34:52.602Z,5.25
2023-05-14T03:35:52.578Z,5.24
2023-05-14T03:36:54.450Z,5.31
2023-05-14T03:37:52.548Z,5.25
2023-05-14T03:38:52.565Z,5.27
2023-05-14T03:39:52.528Z,5.30
2023-05-14T03:40:52.524Z,5.25
2023-05-14T03:41:52.530Z,5.27
2023-05-14T03:42:52.513Z,5.38
2023-05-14T03:43:52.504Z,5.30
2023-05-14T03:44:52.486Z,5.28
2023-05-14T03:45:52.601Z,5.38
2023-05-14T03:46:52.501Z,5.28
2023-05-14T03:47:52.530Z,5.24
2023-05-14T03:48:52.463Z,5.28
2023-05-14T03:49:52.426Z,5.24
2023-05-14T03:50:52.438Z,5.28
2023-05-14T03:51:52.402Z,5.36
2023-05-14T03:52:52.403Z,5.36
2023-05-14T03:53:52.369Z,5.28
2023-05-14T03:54:52.382Z,5.39
2023-05-14T03:55:52.379Z,5.36
2023-05-14T03:56:52.342Z,5.46
2023-05-14T03:57:52.339Z,5.46
2023-05-14T03:58:52.331Z,5.48
2023-05-14T03:59:52.303Z,5.43
2023-05-14T04:00:52.295Z,5.48
2023-05-14T04:01:52.315Z,5.35
2023-05-14T04:02:52.380Z,5.42
2023-05-14T04:03:52.419Z,5.45
2023-05-14T04:04:52.334Z,5.42
2023-05-14T04:05:52.400Z,5.43
2023-05-14T04:06:52.255Z,5.49
2023-05-14T04:07:52.210Z,5.54
2023-05-14T04:08:52.211Z,5.54
2023-05-14T04:09:52.187Z,5.54
2023-05-14T04:10:52.205Z,5.64
2023-05-14T04:11:52.188Z,5.60
2023-05-14T04:12:52.176Z,5.64
2023-05-14T04:13:52.146Z,5.72
2023-05-14T04:14:52.138Z,5.78
2023-05-14T04:15:52.173Z,5.72
2023-05-14T04:16:52.161Z,5.81
2023-05-14T04:17:52.131Z,5.89
2023-05-14T04:18:52.123Z,5.86
2023-05-14T04:19:52.073Z,5.89
2023-05-14T04:20:52.085Z,5.94
2023-05-14T04:21:52.085Z,5.89
2023-05-14T04:22:52.046Z,5.94
2023-05-14T04:23:52.031Z,6.00
2023-05-14T04:24:52.047Z,6.01
2023-05-14T04:25:52.024Z,6.12
2023-05-14T04:26:52.044Z,6.11
2023-05-14T04:27:51.978Z,6.12
2023-05-14T04:28:51.992Z,6.09
2023-05-14T04:29:51.973Z,6.14
2023-05-14T04:30:51.953Z,6.14
2023-05-14T04:31:51.972Z,6.17
2023-05-14T04:32:51.962Z,6.12
2023-05-14T04:33:51.924Z,6.21
2023-05-14T04:34:51.905Z,6.22
2023-05-14T04:35:51.884Z,6.33
2023-05-14T04:36:51.884Z,6.36
2023-05-14T04:37:51.887Z,6.34
2023-05-14T04:38:51.856Z,6.40
2023-05-14T04:39:51.857Z,6.49
2023-05-14T04:40:51.944Z,6.52
2023-05-14T04:41:51.819Z,6.61
2023-05-14T04:42:51.849Z,6.66
2023-05-14T04:43:51.804Z,6.70
2023-05-14T04:44:51.799Z,6.73
2023-05-14T04:45:51.798Z,6.73
2023-05-14T04:46:51.792Z,6.84
2023-05-14T04:47:51.767Z,6.87
2023-05-14T04:48:51.775Z,6.97
2023-05-14T04:49:51.735Z,6.97
2023-05-14T04:50:51.716Z,7.06
2023-05-14T04:51:51.708Z,7.10
2023-05-14T04:52:51.733Z,7.03
2023-05-14T04:53:51.683Z,7.13
2023-05-14T04:54:51.688Z,7.21
2023-05-14T04:55:51.674Z,7.21
2023-05-14T04:56:51.658Z,7.34
2023-05-14T04:57:51.622Z,7.35
2023-05-14T04:58:51.644Z,7.37
2023-05-14T04:59:51.623Z,7.42
2023-05-14T05:00:51.641Z,7.49
2023-05-14T05:01:51.584Z,7.53
2023-05-14T05:02:51.650Z,7.61
2023-05-14T05:03:51.636Z,7.67
2023-05-14T05:04:51.563Z,7.77
2023-05-14T05:05:51.538Z,7.77
2023-05-14T05:06:51.527Z,7.80
2023-05-14T05:07:51.530Z,7.92
2023-05-14T05:08:51.517Z,7.92
2023-05-14T05:09:51.534Z,7.98
2023-05-14T05:10:51.506Z,8.12
2023-05-14T05:11:51.524Z,8.18
2023-05-14T05:12:51.470Z,8.15
2023-05-14T05:13:51.677Z,8.16
2023-05-14T05:14:51.487Z,8.22
2023-05-14T05:15:51.465Z,8.36
2023-05-14T05:16:51.476Z,8.43
2023-05-14T05:17:51.455Z,8.44
2023-05-14T05:18:51.471Z,8.53
2023-05-14T05:19:51.378Z,8.55
2023-05-14T05:20:51.376Z,8.68
2023-05-14T05:21:51.367Z,8.83
2023-05-14T05:22:51.352Z,8.98
2023-05-14T05:23:51.369Z,9.01
2023-05-14T05:24:51.329Z,9.13
2023-05-14T05:25:51.330Z,9.26
2023-05-14T05:26:51.306Z,9.23
2023-05-14T05:27:51.293Z,9.35
2023-05-14T05:28:51.309Z,9.61
2023-05-14T05:29:51.266Z,9.68
2023-05-14T05:30:51.279Z,9.65
2023-05-14T05:31:51.303Z,9.75
2023-05-14T05:32:51.259Z,9.87
2023-05-14T05:33:51.220Z,9.96
2023-05-14T05:34:51.237Z,9.99
2023-05-14T05:35:51.202Z,9.97
2023-05-14T05:36:51.187Z,10.02
2023-05-14T05:37:51.206Z,10.04
2023-05-14T05:38:51.173Z,10.12
2023-05-14T05:39:51.186Z,9.97
2023-05-14T05:40:51.142Z,10.12
2023-05-14T05:41:51.168Z,10.12
2023-05-14T05:42:51.121Z,10.14
2023-05-14T05:43:51.104Z,10.17
2023-05-14T05:44:51.118Z,10.25
2023-05-14T05:45:51.120Z,10.33
2023-05-14T05:46:51.251Z,10.33
2023-05-14T05:47:51.156Z,10.36
2023-05-14T05:48:51.051Z,10.42
2023-05-14T05:49:51.057Z,10.40
2023-05-14T05:50:51.028Z,10.34
2023-05-14T05:51:51.010Z,10.52
2023-05-14T05:52:51.029Z,10.56
2023-05-14T05:53:50.985Z,10.63
2023-05-14T05:54:50.999Z,10.67
2023-05-14T05:55:50.997Z,10.74
2023-05-14T05:56:50.965Z,10.78
2023-05-14T05:57:50.951Z,10.79
2023-05-14T05:58:50.940Z,10.89
2023-05-14T05:59:50.940Z,10.96
2023-05-14T06:00:50.916Z,10.96
2023-05-14T06:01:51.036Z,11.02
2023-05-14T06:02:51.151Z,11.00
2023-05-14T06:03:50.877Z,11.06
2023-05-14T06:04:57.933Z,11.10
2023-05-14T06:05:50.919Z,11.21
2023-05-14T06:06:51.038Z,11.14
2023-05-14T06:07:50.840Z,11.27
2023-05-14T06:08:50.836Z,11.35
2023-05-14T06:09:50.806Z,11.39
2023-05-14T06:10:50.820Z,11.43
2023-05-14T06:11:50.784Z,11.44
2023-05-14T06:12:50.794Z,11.55
2023-05-14T06:13:50.783Z,11.51
2023-05-14T06:14:50.762Z,11.62
2023-05-14T06:15:50.731Z,11.62
2023-05-14T06:16:50.884Z,11.67
2023-05-14T06:17:50.797Z,11.70
2023-05-14T06:18:50.772Z,11.79
2023-05-14T06:19:50.700Z,11.79
2023-05-14T06:20:50.688Z,11.85
2023-05-14T06:21:50.673Z,11.95
2023-05-14T06:22:50.680Z,12.01
2023-05-14T06:23:50.670Z,11.94
2023-05-14T06:24:50.643Z,12.05
2023-05-14T06:25:50.829Z,12.13
2023-05-14T06:26:50.637Z,12.19
2023-05-14T06:27:50.715Z,12.19
2023-05-14T06:28:50.603Z,12.29
2023-05-14T06:29:50.580Z,12.39
2023-05-14T06:30:50.641Z,12.49
2023-05-14T06:31:50.614Z,12.42
2023-05-14T06:32:50.627Z,12.56
2023-05-14T06:33:50.532Z,12.53
2023-05-14T06:34:50.543Z,12.57
2023-05-14T06:35:50.526Z,12.65
2023-05-14T06:36:50.498Z,12.71
2023-05-14T06:37:50.520Z,12.71
2023-05-14T06:38:50.502Z,12.71
2023-05-14T06:39:50.518Z,12.68
2023-05-14T06:40:50.454Z,12.56
2023-05-14T06:41:50.472Z,12.72
2023-05-14T06:42:50.474Z,12.72
2023-05-14T06:43:50.413Z,13.10
2023-05-14T06:44:50.458Z,13.42
2023-05-14T06:45:50.389Z,13.84
2023-05-14T06:46:50.664Z,13.54
2023-05-14T06:47:50.400Z,13.59
2023-05-14T06:48:50.438Z,13.51
2023-05-14T06:49:50.371Z,13.59
2023-05-14T06:50:50.370Z,13.41
2023-05-14T06:51:50.354Z,13.25
2023-05-14T06:52:50.384Z,13.15
2023-05-14T06:53:50.314Z,13.08
2023-05-14T06:54:50.389Z,13.00
2023-05-14T06:55:50.297Z,12.89
2023-05-14T06:56:50.273Z,12.96
2023-05-14T06:57:50.267Z,12.87
2023-05-14T06:58:50.265Z,13.08
2023-05-14T06:59:50.260Z,13.29
2023-05-14T07:00:50.215Z,13.39
2023-05-14T07:01:50.267Z,13.45
2023-05-14T07:02:50.262Z,13.55
2023-05-14T07:03:50.251Z,13.60
2023-05-14T07:04:50.173Z,13.55
2023-05-14T07:05:50.188Z,13.66
2023-05-14T07:06:50.179Z,13.96
2023-05-14T07:07:50.143Z,14.07
2023-05-14T07:08:50.152Z,14.21
2023-05-14T07:09:50.124Z,14.24
2023-05-14T07:10:50.125Z,14.17
2023-05-14T07:11:50.101Z,14.03
2023-05-14T07:12:50.085Z,13.75
2023-05-14T07:13:50.100Z,13.85
2023-05-14T07:14:50.062Z,13.75
2023-05-14T07:15:50.126Z,13.64
2023-05-14T07:16:50.049Z,13.64
2023-05-14T07:17:50.147Z,13.64
2023-05-14T07:18:50.036Z,13.84
2023-05-14T07:19:50.020Z,13.89
2023-05-14T07:20:49.993Z,14.00
2023-05-14T07:21:50.010Z,14.10
2023-05-14T07:22:49.995Z,14.10
2023-05-14T07:23:50.042Z,14.09
2023-05-14T07:24:49.983Z,14.12
2023-05-14T07:25:49.944Z,14.17
2023-05-14T07:26:49.930Z,14.32
2023-05-14T07:27:49.959Z,14.25
2023-05-14T07:28:49.932Z,14.39
2023-05-14T07:29:49.895Z,14.45
2023-05-14T07:30:49.917Z,14.42
2023-05-14T07:31:49.964Z,14.42
2023-05-14T07:32:49.977Z,14.39
2023-05-14T07:33:49.871Z,14.25
2023-05-14T07:34:49.838Z,14.21
2023-05-14T07:35:49.842Z,14.07
2023-05-14T07:36:49.816Z,14.10
2023-05-14T07:37:49.807Z,13.96
2023-05-14T07:38:49.823Z,13.84
2023-05-14T07:39:49.795Z,13.63
2023-05-14T07:40:49.787Z,13.39
2023-05-14T07:41:49.764Z,13.29
2023-05-14T07:42:49.781Z,13.57
2023-05-14T07:43:49.789Z,13.63
2023-05-14T07:44:49.724Z,13.64
2023-05-14T07:45:49.780Z,13.88
2023-05-14T07:46:49.805Z,13.77
2023-05-14T07:47:49.789Z,13.81
2023-05-14T07:48:49.680Z,13.91
2023-05-14T07:49:49.676Z,14.07
2023-05-14T07:50:49.675Z,13.99
2023-05-14T07:51:49.648Z,13.79
2023-05-14T07:52:49.722Z,13.73
2023-05-14T07:53:49.649Z,13.45
2023-05-14T07:54:50.653Z,13.29
2023-05-14T07:55:49.622Z,13.29
2023-05-14T07:56:49.626Z,13.42
2023-05-14T07:57:49.579Z,13.42
2023-05-14T07:58:49.565Z,13.44
2023-05-14T07:59:49.586Z,13.54
2023-05-14T08:00:49.536Z,13.55
2023-05-14T08:01:49.561Z,13.64
2023-05-14T08:02:49.616Z,13.77
2023-05-14T08:03:49.615Z,13.91
2023-05-14T08:04:49.513Z,14.15
2023-05-14T08:05:49.515Z,14.39
2023-05-14T08:06:49.470Z,14.43
2023-05-14T08:07:49.473Z,14.65
2023-05-14T08:08:49.449Z,14.78
2023-05-14T08:09:49.451Z,14.78
2023-05-14T08:10:49.561Z,14.72
2023-05-14T08:11:49.449Z,14.62
2023-05-14T08:12:49.416Z,14.37
2023-05-14T08:13:49.394Z,14.50
2023-05-14T08:14:49.378Z,14.55
2023-05-14T08:15:49.399Z,14.72
2023-05-14T08:16:49.413Z,14.68
2023-05-14T08:17:49.427Z,14.78
2023-05-14T08:18:49.392Z,14.88
2023-05-14T08:19:50.285Z,15.11
2023-05-14T08:20:49.335Z,15.35
2023-05-14T08:21:49.323Z,15.13
2023-05-14T08:22:49.284Z,14.98
2023-05-14T08:23:49.283Z,14.81
2023-05-14T08:24:49.294Z,14.75
2023-05-14T08:25:49.275Z,14.80
2023-05-14T08:26:49.276Z,14.80
2023-05-14T08:27:49.235Z,14.88
2023-05-14T08:28:49.315Z,15.10
2023-05-14T08:29:49.225Z,15.27
2023-05-14T08:30:49.268Z,15.32
2023-05-14T08:31:49.201Z,15.31
2023-05-14T08:32:49.213Z,15.39
2023-05-14T08:33:49.184Z,15.50
2023-05-14T08:34:49.141Z,15.64
2023-05-14T08:35:49.155Z,15.74
2023-05-14T08:36:49.126Z,16.04
2023-05-14T08:37:49.114Z,16.17
2023-05-14T08:38:49.134Z,16.28
2023-05-14T08:39:49.100Z,16.43
2023-05-14T08:40:49.086Z,16.64
2023-05-14T08:41:49.095Z,16.60
2023-05-14T08:42:49.078Z,16.61
2023-05-14T08:43:49.058Z,16.61
2023-05-14T08:44:49.030Z,16.71
2023-05-14T08:45:49.027Z,16.79
2023-05-14T08:46:49.032Z,16.91
2023-05-14T08:47:50.043Z,16.97
2023-05-14T08:48:49.060Z,17.01
2023-05-14T08:49:49.152Z,17.04
2023-05-14T08:50:48.978Z,17.21
2023-05-14T08:51:48.953Z,17.23
2023-05-14T08:52:48.946Z,16.89
2023-05-14T08:53:48.928Z,16.60
2023-05-14T08:54:48.920Z,16.46
2023-05-14T08:55:48.930Z,16.30
2023-05-14T08:56:51.200Z,16.25
2023-05-14T08:57:48.888Z,16.28
2023-05-14T08:58:48.903Z,16.38
2023-05-14T08:59:48.864Z,16.42
2023-05-14T09:00:48.847Z,16.31
2023-05-14T09:01:49.109Z,16.24
2023-05-14T09:02:48.837Z,16.33
2023-05-14T09:03:48.853Z,16.34
2023-05-14T09:04:48.810Z,16.39
2023-05-14T09:05:48.790Z,16.34
2023-05-14T09:06:48.773Z,16.38
2023-05-14T09:07:48.796Z,16.43
2023-05-14T09:08:48.758Z,16.33
2023-05-14T09:09:48.748Z,16.33
2023-05-14T09:10:48.748Z,16.43
2023-05-14T09:11:48.749Z,16.52
2023-05-14T09:12:48.732Z,16.67
2023-05-14T09:13:48.708Z,16.78
2023-05-14T09:14:48.708Z,17.04
2023-05-14T09:15:48.797Z,17.16
2023-05-14T09:16:48.831Z,16.89
2023-05-14T09:17:48.757Z,16.88
2023-05-14T09:18:48.719Z,16.91
2023-05-14T09:19:48.636Z,17.08
2023-05-14T09:20:48.638Z,17.25
2023-05-14T09:21:48.618Z,17.43
2023-05-14T09:22:48.598Z,17.07
2023-05-14T09:23:48.600Z,16.78
2023-05-14T09:24:48.598Z,16.79
2023-05-14T09:25:48.582Z,16.85
2023-05-14T09:26:48.556Z,16.71
2023-05-14T09:27:48.540Z,16.52
2023-05-14T09:28:48.542Z,16.48
2023-05-14T09:29:48.513Z,16.39
2023-05-14T09:30:48.520Z,16.25
2023-05-14T09:31:48.547Z,16.01
2023-05-14T09:32:48.512Z,15.54
2023-05-14T09:33:48.502Z,15.41
2023-05-14T09:34:48.456Z,15.38
2023-05-14T09:35:48.456Z,15.54
2023-05-14T09:36:48.441Z,15.64
2023-05-14T09:37:48.471Z,15.74
2023-05-14T09:38:48.410Z,15.93
2023-05-14T09:39:48.404Z,16.27
2023-05-14T09:40:48.408Z,16.48
2023-05-14T09:41:48.393Z,16.70
2023-05-14T09:42:48.360Z,16.93
2023-05-14T09:43:48.364Z,16.88
2023-05-14T09:44:48.342Z,16.42
2023-05-14T09:45:48.355Z,16.05
2023-05-14T09:46:48.377Z,16.08
2023-05-14T09:47:48.406Z,16.08
2023-05-14T09:48:48.294Z,15.92
2023-05-14T09:49:48.307Z,16.05
2023-05-14T09:50:48.296Z,16.15
2023-05-14T09:51:48.281Z,16.28
2023-05-14T09:52:51.068Z,16.25
2023-05-14T09:53:48.318Z,16.08
2023-05-14T09:54:48.272Z,16.23
2023-05-14T09:55:48.217Z,16.14
2023-05-14T09:56:48.221Z,16.49
2023-05-14T09:57:48.203Z,16.70
2023-05-14T09:58:48.191Z,16.42
2023-05-14T09:59:48.183Z,16.05
2023-05-14T10:00:48.199Z,16.02
2023-05-14T10:01:48.175Z,16.02
2023-05-14T10:02:48.174Z,16.20
2023-05-14T10:03:48.124Z,16.27
2023-05-14T10:04:48.149Z,16.34
2023-05-14T10:05:48.108Z,16.53
2023-05-14T10:06:48.134Z,16.64
2023-05-14T10:07:48.112Z,16.70
2023-05-14T10:08:48.067Z,16.70
2023-05-14T10:09:48.070Z,16.89
2023-05-14T10:10:48.076Z,16.97
2023-05-14T10:11:48.042Z,17.06
2023-05-14T10:12:48.028Z,17.22
2023-05-14T10:13:48.020Z,17.19
2023-05-14T10:14:48.014Z,17.22
2023-05-14T10:15:48.004Z,17.16
2023-05-14T10:16:48.017Z,17.06
2023-05-14T10:17:48.006Z,16.97
2023-05-14T10:18:48.055Z,16.89
2023-05-14T10:19:47.965Z,16.94
2023-05-14T10:20:47.935Z,17.01
2023-05-14T10:21:47.923Z,17.12
2023-05-14T10:22:47.911Z,17.33
2023-05-14T10:23:47.906Z,17.25
2023-05-14T10:24:47.908Z,17.34
2023-05-14T10:25:47.881Z,17.37
2023-05-14T10:26:47.865Z,17.49
2023-05-14T10:27:47.872Z,17.58
2023-05-14T10:28:47.834Z,17.71
2023-05-14T10:29:47.829Z,17.40
2023-05-14T10:30:47.845Z,17.48
2023-05-14T10:31:47.881Z,17.36
2023-05-14T10:32:47.886Z,17.44
2023-05-14T10:33:47.786Z,17.44
2023-05-14T10:34:47.784Z,17.40
2023-05-14T10:35:47.783Z,17.56
2023-05-14T10:36:47.752Z,17.74
2023-05-14T10:37:47.741Z,17.93
2023-05-14T10:38:47.754Z,17.93
2023-05-14T10:39:47.732Z,18.14
2023-05-14T10:40:47.697Z,18.23
2023-05-14T10:41:47.718Z,18.20
2023-05-14T10:42:47.677Z,18.05
2023-05-14T10:43:47.707Z,17.74
2023-05-14T10:44:47.656Z,17.74
2023-05-14T10:45:47.669Z,17.37
2023-05-14T10:46:47.680Z,17.38
2023-05-14T10:47:47.669Z,17.31
2023-05-14T10:48:47.610Z,17.28
2023-05-14T10:49:47.621Z,17.26
2023-05-14T10:50:47.635Z,17.40
2023-05-14T10:51:47.578Z,17.66
2023-05-14T10:52:47.581Z,17.82
2023-05-14T10:53:47.557Z,17.46
2023-05-14T10:54:47.539Z,17.08
2023-05-14T10:55:47.559Z,16.88
2023-05-14T10:56:47.547Z,17.01
2023-05-14T10:57:47.523Z,17.33
2023-05-14T10:58:47.491Z,17.54
2023-05-14T10:59:47.494Z,17.75
2023-05-14T11:00:47.491Z,17.70
2023-05-14T11:01:47.552Z,17.58
2023-05-14T11:02:47.501Z,17.41
2023-05-14T11:03:47.448Z,17.38
2023-05-14T11:04:47.444Z,17.26
2023-05-14T11:05:47.421Z,16.75
2023-05-14T11:06:47.445Z,16.52
2023-05-14T11:07:47.390Z,16.58
2023-05-14T11:08:47.397Z,16.67
2023-05-14T11:09:47.368Z,16.91
2023-05-14T11:10:47.365Z,17.04
2023-05-14T11:11:47.362Z,17.18
2023-05-14T11:12:47.340Z,17.36
2023-05-14T11:13:47.341Z,17.25
2023-05-14T11:14:47.322Z,17.23
2023-05-14T11:15:47.316Z,17.25
2023-05-14T11:16:47.343Z,17.46
2023-05-14T11:17:47.300Z,17.38
2023-05-14T11:18:47.331Z,17.51
2023-05-14T11:19:48.859Z,17.70
2023-05-14T11:20:47.255Z,17.87
2023-05-14T11:21:47.347Z,18.08
2023-05-14T11:22:47.263Z,18.25
2023-05-14T11:23:47.213Z,18.26
2023-05-14T11:24:47.232Z,18.30
2023-05-14T11:25:50.103Z,18.15
2023-05-14T11:26:47.349Z,18.11
2023-05-14T11:27:47.221Z,18.18
2023-05-14T11:28:47.238Z,18.03
2023-05-14T11:29:47.160Z,17.90
2023-05-14T11:30:47.180Z,18.07
2023-05-14T11:31:47.147Z,18.17
2023-05-14T11:32:47.180Z,18.26
2023-05-14T11:33:47.099Z,18.33
2023-05-14T11:34:47.117Z,18.32
2023-05-14T11:35:47.126Z,18.37
2023-05-14T11:36:47.112Z,18.41
2023-05-14T11:37:47.051Z,18.51
2023-05-14T11:38:47.083Z,18.78
2023-05-14T11:39:47.027Z,19.04
2023-05-14T11:40:47.039Z,19.29
2023-05-14T11:41:47.027Z,19.31
2023-05-14T11:42:47.016Z,19.37
2023-05-14T11:43:46.984Z,19.32
2023-05-14T11:44:46.978Z,19.36
2023-05-14T11:45:47.002Z,19.33
2023-05-14T11:46:46.954Z,19.29
2023-05-14T11:47:46.977Z,19.25
2023-05-14T11:48:46.945Z,19.13
2023-05-14T11:49:46.950Z,19.06
2023-05-14T11:50:46.920Z,18.82
2023-05-14T11:51:46.908Z,18.35
2023-05-14T11:52:46.914Z,18.20
2023-05-14T11:53:46.898Z,18.18
2023-05-14T11:54:46.908Z,18.12
2023-05-14T11:55:46.868Z,18.18
2023-05-14T11:56:46.842Z,18.17
2023-05-14T11:57:46.822Z,18.20
2023-05-14T11:58:46.849Z,18.15
2023-05-14T11:59:46.795Z,17.92
2023-05-14T12:00:46.820Z,17.90
2023-05-14T12:01:48.069Z,17.93
2023-05-14T12:02:46.889Z,17.97
2023-05-14T12:03:46.828Z,17.99
2023-05-14T12:04:46.798Z,18.26
2023-05-14T12:05:46.749Z,18.18
2023-05-14T12:06:46.750Z,18.23
2023-05-14T12:07:46.804Z,18.08
2023-05-14T12:08:46.711Z,18.12
2023-05-14T12:09:46.709Z,18.14
2023-05-14T12:10:46.702Z,18.29
2023-05-14T12:11:46.673Z,18.15
2023-05-14T12:12:46.667Z,18.29
2023-05-14T12:13:46.638Z,18.47
2023-05-14T12:14:46.642Z,18.17
2023-05-14T12:15:46.637Z,18.03
2023-05-14T12:16:46.801Z,18.03
2023-05-14T12:17:46.689Z,18.11
2023-05-14T12:18:46.811Z,18.15
2023-05-14T12:19:46.588Z,17.79
2023-05-14T12:20:46.628Z,17.68
2023-05-14T12:21:46.548Z,17.64
2023-05-14T12:22:46.567Z,17.62
2023-05-14T12:23:46.530Z,17.70
2023-05-14T12:24:46.515Z,17.66
2023-05-14T12:25:46.519Z,17.54
2023-05-14T12:26:46.516Z,17.49
2023-05-14T12:27:46.472Z,17.56
2023-05-14T12:28:46.483Z,17.74
2023-05-14T12:29:46.453Z,17.79
2023-05-14T12:30:46.451Z,17.89
2023-05-14T12:31:46.481Z,17.86
2023-05-14T12:32:46.509Z,17.87
2023-05-14T12:33:46.456Z,18.07
2023-05-14T12:34:46.410Z,18.11
2023-05-14T12:35:46.400Z,18.26
2023-05-14T12:36:46.380Z,17.82
2023-05-14T12:37:46.432Z,17.51
2023-05-14T12:38:46.987Z,17.44
2023-05-14T12:39:46.345Z,17.44
2023-05-14T12:40:46.340Z,17.16
2023-05-14T12:41:46.334Z,16.91
2023-05-14T12:42:46.362Z,16.88
2023-05-14T12:43:46.303Z,16.75
2023-05-14T12:44:46.293Z,16.82
2023-05-14T12:45:46.272Z,16.94
2023-05-14T12:46:46.350Z,17.01
2023-05-14T12:47:46.322Z,16.96
2023-05-14T12:48:46.268Z,16.88
2023-05-14T12:49:46.247Z,16.57
2023-05-14T12:50:46.227Z,16.45
2023-05-14T12:51:46.220Z,16.41
2023-05-14T12:52:46.201Z,16.57
2023-05-14T12:53:46.200Z,16.76
2023-05-14T12:54:46.195Z,16.75
2023-05-14T12:55:46.183Z,16.88
2023-05-14T12:56:46.167Z,17.03
2023-05-14T12:57:46.160Z,17.16
2023-05-14T12:58:46.238Z,17.25
2023-05-14T12:59:46.144Z,17.48
2023-05-14T13:00:47.069Z,17.48
2023-05-14T13:01:46.097Z,17.58
2023-05-14T13:02:46.142Z,17.68
2023-05-14T13:03:46.077Z,17.72